Hext, Texas
Current Conditions -  °F | °C
As of 5:55 AM on Saturday 25 Oct 2014 (Local Time) from KBBD Reporting Station
Clear Clear  
Wind Chill: 61°   Ceiling: Unl
Heat Index: 61°   Visibility: 10mi
Dew Point: 55°   Wind: 5mph
Humidity: 82%   Direction: 200°SSW
Pressure: 30.15"   Gusts: NA
Location:  30.87°N, 99.53°W
Report Text: KBBD 251055Z AUTO 20004KT 10SM CLR 16/13 A3015 RMK
Loading
Personal Weather Stations






























Interactive Weather Map
Tropical Storm Tracking
New forecast layout! Learn more

10-Day Weather Forecast

Advertisements
Track Severe Weather on mobile